Time;durP1;ratioP1;P1;durP2;ratioP2;P2;SDS_P1;SDS_P2;PMS_P1;PMS_P2;Temp;Humidity;BMP_temperature;BMP_pressure;BME280_temperature;BME280_humidity;BME280_pressure;Samples;Min_cycle;Max_cycle;Signal;HPM_P1;HPM_P2
2020/12/09 00:01:33;;;;;;;16.93;11.90;;;8.70;1.00;;;;;;5050694;28;20446;-65
2020/12/09 00:04:00;;;;;;;14.80;12.50;;;8.70;1.00;;;;;;5053989;28;20234;-64
2020/12/09 00:06:27;;;;;;;14.83;11.87;;;8.70;1.00;;;;;;5054706;28;20517;-55
2020/12/09 00:08:53;;;;;;;13.83;12.10;;;8.60;1.00;;;;;;5054465;28;20441;-65
2020/12/09 00:11:18;;;;;;;14.03;11.50;;;8.70;1.00;;;;;;5054321;28;20458;-56
2020/12/09 00:13:45;;;;;;;14.40;11.60;;;8.70;1.00;;;;;;5053628;28;20192;-56
2020/12/09 00:16:11;;;;;;;14.67;10.93;;;8.70;1.00;;;;;;5067603;28;20578;-63
2020/12/09 00:18:37;;;;;;;12.03;10.00;;;8.70;1.00;;;;;;5052715;28;20934;-63
2020/12/09 00:21:02;;;;;;;13.67;11.30;;;8.70;1.00;;;;;;5052543;28;20188;-56
2020/12/09 00:23:28;;;;;;;14.23;11.23;;;8.70;1.00;;;;;;5053663;28;20446;-56
2020/12/09 00:25:53;;;;;;;12.67;11.10;;;8.70;1.00;;;;;;5054557;28;20256;-55
2020/12/09 00:28:19;;;;;;;13.43;10.40;;;8.70;1.00;;;;;;5054394;28;20502;-55
2020/12/09 00:30:45;;;;;;;14.10;10.90;;;8.70;1.00;;;;;;5053040;28;20222;-63
2020/12/09 00:33:11;;;;;;;13.37;10.30;;;8.70;1.00;;;;;;5052245;28;20180;-66
2020/12/09 00:35:38;;;;;;;12.37;10.17;;;8.60;1.00;;;;;;5054180;28;20247;-64
2020/12/09 00:38:07;;;;;;;14.00;10.80;;;8.60;1.00;;;;;;5049503;28;20458;-64
2020/12/09 00:40:36;;;;;;;12.90;10.67;;;8.60;1.00;;;;;;5046019;28;20449;-64
2020/12/09 00:43:04;;;;;;;13.67;12.00;;;8.70;1.00;;;;;;5054268;28;20450;-63
2020/12/09 00:45:30;;;;;;;13.83;11.13;;;8.60;1.00;;;;;;5053863;28;20462;-56
2020/12/09 00:47:56;;;;;;;16.83;10.73;;;8.70;1.00;;;;;;5052817;28;20970;-55
2020/12/09 00:52:47;;;;;;;12.70;10.37;;;8.80;1.00;;;;;;5053575;28;20226;-56
2020/12/09 00:55:12;;;;;;;12.30;10.30;;;8.70;1.00;;;;;;5053535;28;20217;-64
2020/12/09 00:57:38;;;;;;;13.67;10.60;;;8.70;1.00;;;;;;5053900;28;20255;-56
2020/12/09 01:00:06;;;;;;;11.40;9.73;;;8.70;1.00;;;;;;5069651;28;20176;-63
2020/12/09 01:02:32;;;;;;;11.73;10.50;;;8.70;1.00;;;;;;5053778;28;20188;-55
2020/12/09 01:04:58;;;;;;;14.13;9.83;;;8.70;1.00;;;;;;5053924;28;20748;-55
2020/12/09 01:07:23;;;;;;;11.33;9.50;;;8.60;1.00;;;;;;5053044;28;20196;-55
2020/12/09 01:09:49;;;;;;;13.17;10.87;;;8.70;1.00;;;;;;5053483;28;20211;-55
2020/12/09 01:12:15;;;;;;;12.53;10.10;;;8.70;1.00;;;;;;5052551;28;20693;-63
2020/12/09 01:14:41;;;;;;;14.87;10.50;;;8.60;1.00;;;;;;5051731;28;20186;-55
2020/12/09 01:17:07;;;;;;;13.20;9.90;;;8.60;1.00;;;;;;5053331;28;20552;-56
2020/12/09 01:19:33;;;;;;;9.33;8.40;;;8.60;1.00;;;;;;5053054;28;20533;-55
2020/12/09 01:21:58;;;;;;;11.10;9.17;;;8.60;1.00;;;;;;5053751;28;20810;-55
2020/12/09 01:24:24;;;;;;;11.20;9.97;;;8.70;1.00;;;;;;5052432;28;20656;-55
2020/12/09 01:26:50;;;;;;;9.93;8.93;;;8.60;1.00;;;;;;5053559;28;20188;-55
2020/12/09 01:29:16;;;;;;;11.90;10.10;;;8.70;1.00;;;;;;5053561;28;20554;-63
2020/12/09 01:31:42;;;;;;;11.63;9.97;;;8.70;1.00;;;;;;5055010;28;20708;-55
2020/12/09 01:34:08;;;;;;;11.93;10.10;;;8.60;1.00;;;;;;5057414;28;20168;-63
2020/12/09 01:36:33;;;;;;;12.50;10.50;;;8.60;1.00;;;;;;5038464;28;20449;-55
2020/12/09 01:38:59;;;;;;;11.83;10.00;;;8.70;1.00;;;;;;5056591;28;20507;-63
2020/12/09 01:41:25;;;;;;;11.40;9.53;;;8.60;1.00;;;;;;5055537;28;20653;-64
2020/12/09 01:43:52;;;;;;;13.00;10.00;;;8.70;1.00;;;;;;5056621;28;20188;-55
2020/12/09 01:46:27;;;;;;;11.03;9.23;;;8.60;1.00;;;;;;5055693;28;20474;-55
2020/12/09 01:48:54;;;;;;;10.80;9.70;;;8.60;1.00;;;;;;5056470;28;20438;-55
2020/12/09 01:51:23;;;;;;;11.13;9.13;;;8.70;1.00;;;;;;5057180;28;20469;-62
2020/12/09 01:53:50;;;;;;;12.47;9.63;;;8.70;1.00;;;;;;5071493;28;20438;-55
2020/12/09 01:56:16;;;;;;;10.70;8.80;;;8.70;1.00;;;;;;5056937;28;20462;-63
2020/12/09 01:58:42;;;;;;;12.40;9.47;;;8.70;1.00;;;;;;5072651;28;20415;-61
2020/12/09 02:01:07;;;;;;;13.07;9.53;;;8.60;1.00;;;;;;5056959;28;20255;-61
2020/12/09 02:03:33;;;;;;;13.77;10.10;;;8.60;1.00;;;;;;5056050;28;20198;-61
2020/12/09 02:05:59;;;;;;;10.67;9.57;;;8.70;1.00;;;;;;5056587;28;20226;-61
2020/12/09 02:08:24;;;;;;;10.23;8.93;;;8.70;1.00;;;;;;5056045;28;20184;-62
2020/12/09 02:11:01;;;;;;;10.90;9.63;;;8.70;1.00;;;;;;5054064;28;20218;-62
2020/12/09 02:13:27;;;;;;;9.13;7.83;;;8.70;1.00;;;;;;5056820;28;20160;-55
2020/12/09 02:15:54;;;;;;;12.57;8.90;;;8.70;1.00;;;;;;5056831;28;20748;-55
2020/12/09 02:18:20;;;;;;;10.60;9.07;;;8.70;1.00;;;;;;5054836;28;20500;-62
2020/12/09 02:20:45;;;;;;;10.60;8.37;;;8.70;1.00;;;;;;5056707;28;20426;-54
2020/12/09 02:23:11;;;;;;;12.43;10.00;;;8.70;1.00;;;;;;5052254;28;20973;-55
2020/12/09 02:25:37;;;;;;;11.77;9.63;;;8.70;1.00;;;;;;5054804;28;20180;-61
2020/12/09 02:28:03;;;;;;;11.80;9.13;;;8.60;1.00;;;;;;5056393;28;20233;-62
2020/12/09 02:30:28;;;;;;;9.47;8.20;;;8.70;1.00;;;;;;5056503;28;20199;-54
2020/12/09 02:32:54;;;;;;;12.73;8.63;;;8.70;1.00;;;;;;5056328;28;20210;-62
2020/12/09 02:35:20;;;;;;;10.07;8.80;;;8.70;1.00;;;;;;5056381;28;20517;-54
2020/12/09 02:37:45;;;;;;;10.67;8.33;;;8.70;1.00;;;;;;5049737;28;20506;-55
2020/12/09 02:40:11;;;;;;;11.53;9.27;;;8.70;1.00;;;;;;5063470;28;20180;-63
2020/12/09 02:42:37;;;;;;;10.70;9.37;;;8.70;1.00;;;;;;5052947;28;20185;-55
2020/12/09 02:45:03;;;;;;;10.67;8.93;;;8.70;1.00;;;;;;5055380;28;20243;-55
2020/12/09 02:47:29;;;;;;;10.60;7.83;;;8.70;1.00;;;;;;5055453;28;20172;-62
2020/12/09 02:49:54;;;;;;;10.40;8.60;;;8.80;1.00;;;;;;5055116;28;20451;-55
2020/12/09 02:52:20;;;;;;;10.20;8.77;;;8.70;1.00;;;;;;5054914;28;20211;-62
2020/12/09 02:54:46;;;;;;;12.57;9.97;;;8.70;1.00;;;;;;5054941;28;20172;-63
2020/12/09 02:57:11;;;;;;;10.57;9.00;;;8.80;1.00;;;;;;5055114;28;20187;-55
2020/12/09 02:59:37;;;;;;;11.90;8.90;;;8.80;1.00;;;;;;5055725;28;20180;-55
2020/12/09 03:02:02;;;;;;;11.90;10.07;;;8.90;1.00;;;;;;5069708;28;20215;-55
2020/12/09 03:04:28;;;;;;;11.60;9.63;;;8.80;1.00;;;;;;5055098;28;20203;-62
2020/12/09 03:06:54;;;;;;;11.70;9.50;;;8.80;1.00;;;;;;5055878;28;20246;-62
2020/12/09 03:09:19;;;;;;;13.47;10.23;;;8.90;1.00;;;;;;5055899;28;20266;-54
2020/12/09 03:11:45;;;;;;;12.50;9.53;;;8.80;1.00;;;;;;5056032;28;20208;-55
2020/12/09 03:14:10;;;;;;;12.23;9.70;;;8.70;1.00;;;;;;5055691;28;20183;-54
2020/12/09 03:16:36;;;;;;;11.77;9.83;;;8.70;1.00;;;;;;5070717;28;20173;-54
2020/12/09 03:19:02;;;;;;;12.63;10.07;;;8.70;1.00;;;;;;5051349;28;20186;-58
2020/12/09 03:21:30;;;;;;;10.20;9.17;;;8.70;1.00;;;;;;5055594;28;20183;-54
2020/12/09 03:23:56;;;;;;;12.43;10.17;;;8.80;1.00;;;;;;5052866;28;20614;-63
2020/12/09 03:26:22;;;;;;;11.23;9.70;;;8.80;1.00;;;;;;5055144;28;20452;-63
2020/12/09 03:28:47;;;;;;;13.20;10.53;;;8.80;1.00;;;;;;5070993;28;20180;-63
2020/12/09 03:31:13;;;;;;;12.90;10.20;;;8.80;1.00;;;;;;5070163;28;20207;-65
2020/12/09 03:33:39;;;;;;;13.77;10.90;;;8.90;1.00;;;;;;5055449;28;20176;-64
2020/12/09 03:36:05;;;;;;;14.13;10.17;;;8.90;1.00;;;;;;5055173;28;20183;-55
2020/12/09 03:38:30;;;;;;;11.33;8.80;;;8.90;1.00;;;;;;5048532;28;20187;-63
2020/12/09 03:40:56;;;;;;;12.30;11.10;;;8.90;1.00;;;;;;5053393;28;20442;-64
2020/12/09 03:43:22;;;;;;;12.97;10.10;;;8.80;1.00;;;;;;5067169;28;20219;-64
2020/12/09 03:45:48;;;;;;;11.47;9.10;;;8.90;1.00;;;;;;5053618;28;20935;-64
2020/12/09 03:48:13;;;;;;;10.37;8.97;;;8.80;1.00;;;;;;5053924;28;20180;-55
2020/12/09 03:50:39;;;;;;;11.77;9.77;;;8.90;1.00;;;;;;5049211;28;20187;-55
2020/12/09 03:53:05;;;;;;;10.93;9.33;;;8.90;1.00;;;;;;5069870;28;20562;-54
2020/12/09 03:55:30;;;;;;;11.30;9.23;;;8.80;1.00;;;;;;5054126;28;20258;-55
2020/12/09 03:57:59;;;;;;;12.13;10.03;;;8.80;1.00;;;;;;5054390;28;20183;-63
2020/12/09 04:00:24;;;;;;;11.77;9.10;;;8.80;1.00;;;;;;5054651;28;20169;-63
2020/12/09 04:02:50;;;;;;;12.60;11.20;;;8.90;1.00;;;;;;5053924;28;20934;-55
2020/12/09 04:05:16;;;;;;;9.90;8.80;;;8.90;1.00;;;;;;5053727;28;20614;-54
2020/12/09 04:07:41;;;;;;;10.90;9.40;;;8.90;1.00;;;;;;5054630;28;20172;-55
2020/12/09 04:10:07;;;;;;;11.20;8.60;;;8.90;1.00;;;;;;5041708;28;20196;-54
2020/12/09 04:12:33;;;;;;;11.50;9.33;;;8.90;1.00;;;;;;5053863;28;20682;-55
2020/12/09 04:14:59;;;;;;;12.17;9.83;;;8.90;1.00;;;;;;5054118;28;20430;-55
2020/12/09 04:17:25;;;;;;;10.47;9.33;;;8.90;1.00;;;;;;5053718;28;20430;-63
2020/12/09 04:19:50;;;;;;;12.37;9.13;;;8.90;1.00;;;;;;5053212;28;20183;-55
2020/12/09 04:22:16;;;;;;;12.30;9.47;;;9.00;1.00;;;;;;5053606;28;20260;-64
2020/12/09 04:24:42;;;;;;;11.50;9.73;;;9.00;1.00;;;;;;5052978;28;20180;-63
2020/12/09 04:27:08;;;;;;;10.67;9.30;;;9.00;1.00;;;;;;5054369;28;20168;-64
2020/12/09 04:29:34;;;;;;;12.60;9.80;;;9.00;1.00;;;;;;5053319;28;20517;-54
2020/12/09 04:31:59;;;;;;;13.60;10.10;;;9.00;1.00;;;;;;5051688;28;20207;-63
2020/12/09 04:34:26;;;;;;;11.47;9.00;;;9.00;1.00;;;;;;5054650;28;20660;-54
2020/12/09 04:36:53;;;;;;;10.10;9.00;;;9.00;1.00;;;;;;5054506;28;20168;-63
2020/12/09 04:39:19;;;;;;;11.57;10.37;;;9.00;1.00;;;;;;5049450;28;20445;-55
2020/12/09 04:41:45;;;;;;;11.03;8.93;;;8.90;1.00;;;;;;5039380;28;20518;-64
2020/12/09 04:44:11;;;;;;;11.60;9.63;;;8.90;1.00;;;;;;5054033;28;20480;-55
2020/12/09 04:46:43;;;;;;;11.60;9.40;;;9.00;1.00;;;;;;5044459;28;20559;-63
2020/12/09 04:49:14;;;;;;;11.40;9.43;;;8.90;1.00;;;;;;5036550;28;20177;-55
2020/12/09 04:52:20;;;;;;;10.27;8.70;;;8.90;1.00;;;;;;5034007;28;20916;-64
2020/12/09 04:54:47;;;;;;;11.77;10.27;;;8.90;1.00;;;;;;5058101;28;20438;-54
2020/12/09 04:58:02;;;;;;;11.37;9.23;;;8.80;1.00;;;;;;5053622;28;20942;-55
2020/12/09 05:00:30;;;;;;;12.93;9.87;;;8.80;1.00;;;;;;5052388;28;20815;-63
2020/12/09 05:03:14;;;;;;;14.57;9.63;;;8.90;1.00;;;;;;5053736;28;20422;-55
2020/12/09 05:05:40;;;;;;;10.80;9.40;;;8.90;1.00;;;;;;5043944;28;20908;-55
2020/12/09 05:08:11;;;;;;;10.80;8.40;;;8.90;1.00;;;;;;5052663;28;20496;-56
2020/12/09 05:10:48;;;;;;;10.80;8.90;;;8.90;1.00;;;;;;5053786;28;20657;-56
2020/12/09 05:13:25;;;;;;;10.07;9.00;;;9.00;1.00;;;;;;5052502;28;20524;-57
2020/12/09 05:15:57;;;;;;;10.33;8.20;;;9.00;1.00;;;;;;5052850;28;20420;-57
2020/12/09 05:18:36;;;;;;;9.40;8.17;;;9.10;1.00;;;;;;5052570;28;20427;-67
2020/12/09 05:21:20;;;;;;;11.03;9.17;;;9.20;1.00;;;;;;5051374;28;20426;-66
2020/12/09 05:23:46;;;;;;;9.70;8.70;;;9.20;1.00;;;;;;5052396;28;20429;-68
2020/12/09 05:26:26;;;;;;;11.23;8.87;;;9.10;1.00;;;;;;5068692;28;20429;-57
2020/12/09 05:29:10;;;;;;;9.83;8.27;;;9.10;1.00;;;;;;5053702;28;20176;-68
2020/12/09 05:31:41;;;;;;;10.07;8.97;;;9.10;1.00;;;;;;5053560;28;20519;-68
2020/12/09 05:34:21;;;;;;;8.57;7.63;;;9.10;1.00;;;;;;5053538;28;20403;-69
2020/12/09 05:36:47;;;;;;;12.83;10.17;;;9.10;1.00;;;;;;5069180;28;20422;-55
2020/12/09 05:39:13;;;;;;;9.43;8.33;;;9.00;1.00;;;;;;5053483;28;20431;-69
2020/12/09 05:41:39;;;;;;;11.13;8.70;;;9.00;1.00;;;;;;5052757;28;20813;-67
2020/12/09 05:44:05;;;;;;;8.37;7.23;;;9.10;1.00;;;;;;5053180;28;20465;-55
2020/12/09 05:46:31;;;;;;;9.80;8.43;;;9.00;1.00;;;;;;5053268;28;20225;-70
2020/12/09 05:48:57;;;;;;;12.73;9.77;;;9.00;1.00;;;;;;5053010;28;20434;-55
2020/12/09 05:51:23;;;;;;;12.67;9.13;;;9.00;1.00;;;;;;5053306;28;20196;-55
2020/12/09 05:53:49;;;;;;;10.30;8.53;;;9.00;1.00;;;;;;5052118;28;20437;-55
2020/12/09 05:56:21;;;;;;;10.63;8.80;;;9.00;1.00;;;;;;5053360;28;20168;-56
2020/12/09 05:58:51;;;;;;;10.80;7.93;;;9.00;1.00;;;;;;5052388;28;20250;-56
2020/12/09 06:01:18;;;;;;;11.73;9.60;;;9.10;1.00;;;;;;5052233;28;20434;-56
2020/12/09 06:03:48;;;;;;;9.83;8.17;;;9.00;1.00;;;;;;5052317;28;20496;-67
2020/12/09 06:06:25;;;;;;;10.53;7.73;;;9.00;1.00;;;;;;5042442;28;20912;-56
2020/12/09 06:08:59;;;;;;;9.83;8.50;;;9.00;1.00;;;;;;5053187;28;20425;-56
2020/12/09 06:11:32;;;;;;;10.10;9.00;;;9.10;1.00;;;;;;5052869;28;20457;-56
2020/12/09 06:13:59;;;;;;;9.90;8.30;;;9.00;1.00;;;;;;5068738;28;20429;-68
2020/12/09 06:16:25;;;;;;;9.00;8.10;;;9.10;1.00;;;;;;5053760;28;20579;-69
2020/12/09 06:18:53;;;;;;;9.70;8.60;;;9.10;1.00;;;;;;5071774;28;20430;-69
2020/12/09 06:21:25;;;;;;;9.10;8.20;;;9.10;1.00;;;;;;5055474;28;20434;-55
2020/12/09 06:23:54;;;;;;;12.50;8.97;;;9.10;1.00;;;;;;5055963;28;20436;-56
2020/12/09 06:26:20;;;;;;;10.73;8.53;;;9.10;1.00;;;;;;5056522;28;20872;-55
2020/12/09 06:28:47;;;;;;;9.27;7.87;;;9.10;1.00;;;;;;5056236;28;20504;-69
2020/12/09 06:31:21;;;;;;;12.23;8.53;;;9.20;1.00;;;;;;5055845;28;20200;-69
2020/12/09 06:33:48;;;;;;;9.20;7.63;;;9.20;1.00;;;;;;5056342;28;20423;-55
2020/12/09 06:36:28;;;;;;;9.97;8.73;;;9.20;1.00;;;;;;5055987;28;20431;-68
2020/12/09 06:39:11;;;;;;;12.73;8.60;;;9.20;1.00;;;;;;5056397;28;20890;-56
2020/12/09 06:41:58;;;;;;;12.53;9.00;;;9.20;1.00;;;;;;5055193;28;20830;-68
2020/12/09 06:44:31;;;;;;;14.17;10.20;;;9.10;1.00;;;;;;5056269;28;20435;-55
2020/12/09 06:46:58;;;;;;;8.73;7.77;;;9.20;1.00;;;;;;5056140;28;20449;-55
2020/12/09 06:49:33;;;;;;;9.63;8.73;;;9.20;1.00;;;;;;5055479;28;20517;-55
2020/12/09 06:52:01;;;;;;;11.43;7.83;;;9.30;1.00;;;;;;5055527;28;20732;-56
2020/12/09 06:54:37;;;;;;;9.07;8.17;;;9.30;1.00;;;;;;5055436;28;20485;-55
2020/12/09 06:57:23;;;;;;;9.53;8.10;;;9.30;1.00;;;;;;5055439;28;20426;-54
2020/12/09 06:59:51;;;;;;;9.57;8.57;;;9.20;1.00;;;;;;5055707;28;20494;-55
2020/12/09 07:02:27;;;;;;;11.53;9.63;;;9.10;1.00;;;;;;5055373;28;20430;-55
2020/12/09 07:04:53;;;;;;;18.10;9.30;;;9.20;1.00;;;;;;5054320;28;20934;-55
2020/12/09 07:07:29;;;;;;;9.50;8.50;;;9.20;1.00;;;;;;5054030;28;20517;-68
2020/12/09 07:09:56;;;;;;;8.93;8.03;;;9.20;1.00;;;;;;5055046;28;20184;-55
2020/12/09 07:12:22;;;;;;;10.50;9.40;;;9.20;1.00;;;;;;5055532;28;20446;-55
2020/12/09 07:14:49;;;;;;;12.70;9.53;;;9.20;1.00;;;;;;5055466;28;20500;-56
2020/12/09 07:17:22;;;;;;;9.10;7.43;;;9.30;1.00;;;;;;5055054;28;20418;-68
2020/12/09 07:19:49;;;;;;;9.80;8.67;;;9.20;1.00;;;;;;5054693;28;20916;-69
2020/12/09 07:22:15;;;;;;;9.63;8.27;;;9.20;1.00;;;;;;5052725;28;20491;-66
2020/12/09 07:24:40;;;;;;;9.13;8.23;;;9.10;1.00;;;;;;5071156;28;20799;-67
2020/12/09 07:27:09;;;;;;;9.60;8.17;;;9.20;1.00;;;;;;5054921;28;20550;-67
2020/12/09 07:29:37;;;;;;;8.93;7.40;;;9.20;1.00;;;;;;5053873;28;20207;-67
2020/12/09 07:32:04;;;;;;;9.10;7.60;;;9.10;1.00;;;;;;5053133;28;20456;-55
2020/12/09 07:34:30;;;;;;;9.90;7.93;;;9.00;1.00;;;;;;5054062;28;20464;-54
2020/12/09 07:36:55;;;;;;;8.67;7.50;;;9.10;1.00;;;;;;5054399;28;20422;-66
2020/12/09 07:39:34;;;;;;;9.00;8.10;;;9.20;1.00;;;;;;5054849;28;20633;-68
2020/12/09 07:42:02;;;;;;;8.90;7.80;;;9.20;1.00;;;;;;5054894;28;20232;-67
2020/12/09 07:44:28;;;;;;;11.00;8.03;;;9.20;1.00;;;;;;5054694;28;20430;-55
2020/12/09 07:46:56;;;;;;;8.47;7.50;;;9.20;1.00;;;;;;5054466;28;20470;-65
2020/12/09 07:49:21;;;;;;;11.10;7.77;;;9.20;1.00;;;;;;5054180;28;20900;-67
2020/12/09 07:51:48;;;;;;;10.77;7.57;;;9.20;1.00;;;;;;5054446;28;20580;-66
2020/12/09 07:54:14;;;;;;;11.20;7.47;;;9.20;1.00;;;;;;5054178;28;20187;-56
2020/12/09 07:56:40;;;;;;;9.00;7.53;;;9.20;1.00;;;;;;5054318;28;20434;-55
2020/12/09 07:59:06;;;;;;;10.27;7.37;;;9.20;1.00;;;;;;5054542;28;20434;-55
2020/12/09 08:01:32;;;;;;;9.33;7.30;;;9.20;1.00;;;;;;5054813;28;20437;-69
2020/12/09 08:03:57;;;;;;;8.83;6.47;;;9.20;1.00;;;;;;5070211;28;20180;-55
2020/12/09 08:06:23;;;;;;;9.97;7.47;;;9.20;1.00;;;;;;5053479;28;20239;-54
2020/12/09 08:08:52;;;;;;;9.43;7.87;;;9.30;1.00;;;;;;5054475;28;20637;-67
2020/12/09 08:11:17;;;;;;;7.23;6.20;;;9.30;1.00;;;;;;5054360;28;20517;-67
2020/12/09 08:13:43;;;;;;;9.20;7.93;;;9.20;1.00;;;;;;5069478;28;20817;-68
2020/12/09 08:16:13;;;;;;;9.90;7.90;;;9.30;1.00;;;;;;5054206;28;20598;-67
2020/12/09 08:18:43;;;;;;;11.80;7.73;;;9.30;1.00;;;;;;5054029;28;20263;-68
2020/12/09 08:21:10;;;;;;;8.77;7.13;;;9.30;1.00;;;;;;5053328;28;20907;-54
2020/12/09 08:23:46;;;;;;;9.43;7.10;;;9.30;1.00;;;;;;5053371;28;20903;-55
2020/12/09 08:26:12;;;;;;;7.80;7.10;;;9.20;1.00;;;;;;5054157;28;20855;-55
2020/12/09 08:28:38;;;;;;;10.80;7.77;;;9.30;1.00;;;;;;5054025;28;20917;-59
2020/12/09 08:31:17;;;;;;;8.20;7.40;;;9.20;1.00;;;;;;5050839;28;20500;-57
2020/12/09 08:33:43;;;;;;;10.50;7.87;;;9.20;1.00;;;;;;5054572;28;20176;-67
2020/12/09 08:36:13;;;;;;;11.17;7.73;;;9.20;1.00;;;;;;5054149;28;20682;-57
2020/12/09 08:38:46;;;;;;;10.17;7.80;;;9.30;1.00;;;;;;5054012;28;20425;-57
2020/12/09 08:41:26;;;;;;;9.33;7.77;;;9.30;1.00;;;;;;5053075;28;20411;-68
2020/12/09 08:43:55;;;;;;;8.13;7.30;;;9.30;1.00;;;;;;5069542;28;20471;-69
2020/12/09 08:46:21;;;;;;;8.50;7.30;;;9.40;1.00;;;;;;5053611;28;20454;-55
2020/12/09 08:48:47;;;;;;;8.10;7.00;;;9.40;1.00;;;;;;5054088;28;20493;-53
2020/12/09 08:51:12;;;;;;;7.73;6.93;;;9.50;1.00;;;;;;5053558;28;20505;-68
2020/12/09 08:53:38;;;;;;;8.60;6.83;;;9.40;1.00;;;;;;5053343;28;20600;-56
2020/12/09 08:56:04;;;;;;;13.70;6.83;;;9.50;1.00;;;;;;5053749;28;20168;-70
2020/12/09 08:58:29;;;;;;;12.93;6.90;;;9.50;1.00;;;;;;5052894;28;20222;-70
2020/12/09 09:00:55;;;;;;;7.60;6.80;;;9.60;1.00;;;;;;5053736;28;20180;-68
2020/12/09 09:03:24;;;;;;;9.70;6.60;;;9.50;1.00;;;;;;5054012;28;20614;-55
2020/12/09 09:05:58;;;;;;;7.53;6.47;;;9.50;1.00;;;;;;5052586;28;20199;-68
2020/12/09 09:08:24;;;;;;;7.93;6.80;;;9.50;1.00;;;;;;5053750;28;20423;-56
2020/12/09 09:10:50;;;;;;;6.97;5.33;;;9.50;1.00;;;;;;5053871;28;20736;-56
2020/12/09 09:13:16;;;;;;;9.03;7.27;;;9.50;1.00;;;;;;5053608;28;20467;-55
2020/12/09 09:15:42;;;;;;;10.10;7.53;;;9.40;1.00;;;;;;5053765;28;20420;-66
2020/12/09 09:18:09;;;;;;;12.10;6.87;;;9.40;1.00;;;;;;5053742;28;20500;-69
2020/12/09 09:20:35;;;;;;;8.27;6.80;;;9.50;1.00;;;;;;5069015;28;20196;-67
2020/12/09 09:23:01;;;;;;;8.40;5.50;;;9.40;1.00;;;;;;5068954;28;20469;-70
2020/12/09 09:25:27;;;;;;;6.60;5.67;;;9.50;1.00;;;;;;5053438;28;20435;-68
2020/12/09 09:27:53;;;;;;;8.37;5.83;;;9.50;1.00;;;;;;5053664;28;20433;-68
2020/12/09 09:30:20;;;;;;;7.60;5.57;;;9.60;1.00;;;;;;5068905;28;20247;-68
2020/12/09 09:32:47;;;;;;;7.13;5.90;;;9.60;1.00;;;;;;5053842;28;20455;-68
2020/12/09 09:35:12;;;;;;;7.17;6.47;;;9.70;1.00;;;;;;5053939;28;20751;-67
2020/12/09 09:37:41;;;;;;;8.07;6.00;;;9.70;1.00;;;;;;5053477;28;21004;-69
2020/12/09 09:40:07;;;;;;;7.77;6.13;;;9.70;1.00;;;;;;5053632;28;20171;-68
2020/12/09 09:42:33;;;;;;;6.90;5.90;;;9.70;1.00;;;;;;5052470;28;20437;-69
2020/12/09 09:45:01;;;;;;;6.17;5.50;;;9.70;1.00;;;;;;5053283;28;20616;-68
2020/12/09 09:47:27;;;;;;;6.27;5.47;;;9.80;1.00;;;;;;5053473;28;20173;-55
2020/12/09 09:49:52;;;;;;;7.17;5.03;;;9.80;1.00;;;;;;5053702;28;20462;-68
2020/12/09 09:52:18;;;;;;;7.77;6.20;;;9.80;1.00;;;;;;5055927;28;20203;-68
2020/12/09 09:54:43;;;;;;;6.70;5.77;;;9.70;1.00;;;;;;5057226;28;20172;-55
2020/12/09 09:57:09;;;;;;;6.73;5.73;;;9.70;1.00;;;;;;5057134;28;20164;-56
2020/12/09 09:59:34;;;;;;;8.33;5.57;;;9.80;1.00;;;;;;5056212;28;20189;-54
2020/12/09 10:02:00;;;;;;;6.50;5.80;;;9.80;1.00;;;;;;5057105;28;20183;-68
2020/12/09 10:04:26;;;;;;;6.73;5.50;;;9.70;1.00;;;;;;5057030;28;20181;-56
2020/12/09 10:06:51;;;;;;;5.97;5.30;;;9.80;1.00;;;;;;5057029;28;20176;-56
2020/12/09 10:09:18;;;;;;;7.40;6.10;;;9.80;1.00;;;;;;5056095;28;20176;-55
2020/12/09 10:11:44;;;;;;;8.13;5.80;;;9.80;1.00;;;;;;5056563;28;20192;-55
2020/12/09 10:14:10;;;;;;;10.33;5.73;;;9.80;1.00;;;;;;5057232;28;20445;-58
2020/12/09 10:16:36;;;;;;;6.93;5.90;;;9.90;1.00;;;;;;5056685;28;20891;-56
2020/12/09 10:19:03;;;;;;;6.37;5.70;;;10.00;1.00;;;;;;5056637;28;20169;-55
2020/12/09 10:21:31;;;;;;;7.13;5.90;;;9.90;1.00;;;;;;5054015;28;20434;-54
2020/12/09 10:23:58;;;;;;;6.03;5.43;;;9.80;1.00;;;;;;5056222;28;20439;-55
2020/12/09 10:26:43;;;;;;;10.47;6.50;;;9.80;1.00;;;;;;5056677;28;20509;-55
2020/12/09 10:29:10;;;;;;;7.43;6.00;;;9.80;1.00;;;;;;5056116;28;20429;-53
2020/12/09 10:31:40;;;;;;;7.27;5.67;;;9.70;1.00;;;;;;5056707;28;20449;-55
2020/12/09 10:34:10;;;;;;;9.87;5.63;;;9.70;1.00;;;;;;5056880;28;20441;-55
2020/12/09 10:36:37;;;;;;;6.90;5.93;;;9.80;1.00;;;;;;5056096;28;20524;-56
2020/12/09 10:39:05;;;;;;;7.50;5.33;;;9.80;1.00;;;;;;5055142;28;20466;-56
2020/12/09 10:41:30;;;;;;;6.33;5.70;;;9.90;1.00;;;;;;5056220;28;20908;-55
2020/12/09 10:43:56;;;;;;;6.70;5.50;;;10.00;1.00;;;;;;5056391;28;20629;-55
2020/12/09 10:46:30;;;;;;;5.57;4.97;;;10.00;1.00;;;;;;5055878;28;20608;-54
2020/12/09 10:48:56;;;;;;;6.47;5.80;;;9.90;1.00;;;;;;5056221;28;20536;-55
2020/12/09 10:51:22;;;;;;;5.77;5.00;;;10.00;1.00;;;;;;5055891;28;20485;-56
2020/12/09 10:53:47;;;;;;;5.60;5.10;;;10.10;1.00;;;;;;5055417;28;20442;-55
2020/12/09 10:56:13;;;;;;;5.47;4.93;;;10.20;1.00;;;;;;5055145;28;20170;-55
2020/12/09 10:58:38;;;;;;;6.13;5.03;;;10.20;1.00;;;;;;5054163;28;20168;-55
2020/12/09 11:01:04;;;;;;;8.20;5.40;;;10.30;1.00;;;;;;5055462;28;20173;-54
2020/12/09 11:03:30;;;;;;;6.37;5.30;;;10.20;1.00;;;;;;5054824;28;20177;-54
2020/12/09 11:05:56;;;;;;;5.73;4.47;;;10.20;1.00;;;;;;5055170;28;20176;-55
2020/12/09 11:08:21;;;;;;;5.93;5.13;;;10.20;1.00;;;;;;5054750;28;20219;-54
2020/12/09 11:10:47;;;;;;;7.57;5.60;;;10.20;1.00;;;;;;5055200;28;20184;-55
2020/12/09 11:13:12;;;;;;;5.53;4.77;;;10.10;1.00;;;;;;5055645;28;20501;-54
2020/12/09 11:15:39;;;;;;;8.63;5.57;;;10.00;1.00;;;;;;5056153;28;20628;-55
2020/12/09 11:18:04;;;;;;;5.43;4.40;;;10.10;1.00;;;;;;5055951;28;20194;-55
2020/12/09 11:20:30;;;;;;;7.77;5.03;;;10.20;1.00;;;;;;5055982;28;20826;-55
2020/12/09 11:22:56;;;;;;;11.17;5.70;;;10.20;1.00;;;;;;5055534;28;20780;-54
2020/12/09 11:25:23;;;;;;;5.60;4.90;;;10.30;1.00;;;;;;5071138;28;20181;-55
2020/12/09 11:27:49;;;;;;;6.50;5.40;;;10.20;1.00;;;;;;5055358;28;20176;-55
2020/12/09 11:30:15;;;;;;;7.10;4.80;;;10.10;1.00;;;;;;5053617;28;20432;-55
2020/12/09 11:32:41;;;;;;;8.60;5.43;;;10.10;1.00;;;;;;5055323;28;20451;-54
2020/12/09 11:35:07;;;;;;;5.30;4.80;;;10.10;1.00;;;;;;5055287;28;20415;-55
2020/12/09 11:37:33;;;;;;;5.13;4.63;;;10.30;1.00;;;;;;5054388;28;20428;-55
2020/12/09 11:39:58;;;;;;;7.50;6.10;;;10.20;1.00;;;;;;5055298;28;20644;-56
2020/12/09 11:42:25;;;;;;;6.57;5.50;;;10.30;1.00;;;;;;5055138;28;20463;-56
2020/12/09 11:44:50;;;;;;;5.00;4.50;;;10.30;1.00;;;;;;5055011;28;20203;-58
2020/12/09 11:47:16;;;;;;;6.40;5.17;;;10.30;1.00;;;;;;5055094;28;20455;-55
2020/12/09 11:49:41;;;;;;;7.47;5.23;;;10.40;1.00;;;;;;5054954;28;20255;-55
2020/12/09 11:52:07;;;;;;;6.67;5.73;;;10.30;1.00;;;;;;5054901;28;20204;-54
2020/12/09 11:54:32;;;;;;;6.07;4.80;;;10.40;1.00;;;;;;5054969;28;20165;-55
2020/12/09 11:56:59;;;;;;;6.00;5.30;;;10.40;1.00;;;;;;5053997;28;20225;-56
2020/12/09 11:59:25;;;;;;;6.00;5.40;;;10.40;1.00;;;;;;5054331;28;20178;-55
2020/12/09 12:01:51;;;;;;;8.00;4.90;;;10.40;1.00;;;;;;5054699;28;20896;-55
2020/12/09 12:04:16;;;;;;;11.57;5.90;;;10.40;1.00;;;;;;5053762;28;20437;-55
2020/12/09 12:06:42;;;;;;;7.30;4.93;;;10.30;1.00;;;;;;5054617;28;20269;-56
2020/12/09 12:09:08;;;;;;;8.27;6.80;;;10.30;1.00;;;;;;5054710;28;20173;-54
2020/12/09 12:11:33;;;;;;;6.93;5.83;;;10.30;1.00;;;;;;5054586;28;20195;-56
2020/12/09 12:13:59;;;;;;;6.33;5.07;;;10.30;1.00;;;;;;5070163;28;20168;-55
2020/12/09 12:16:25;;;;;;;6.90;5.47;;;10.20;1.00;;;;;;5054554;28;20188;-57
2020/12/09 12:18:52;;;;;;;6.63;5.33;;;10.10;1.00;;;;;;5054594;28;20510;-54
2020/12/09 12:21:20;;;;;;;6.30;5.30;;;10.10;1.00;;;;;;5054469;28;20418;-55
2020/12/09 12:23:46;;;;;;;5.93;5.00;;;10.00;1.00;;;;;;5054449;28;20501;-55
2020/12/09 12:26:17;;;;;;;6.80;5.30;;;10.10;1.00;;;;;;5054439;28;20766;-56
2020/12/09 12:28:42;;;;;;;6.20;5.60;;;10.00;1.00;;;;;;5053101;28;20931;-54
2020/12/09 12:31:16;;;;;;;7.23;5.67;;;10.00;1.00;;;;;;5053437;28;20522;-55
2020/12/09 12:33:42;;;;;;;6.10;5.00;;;10.10;1.00;;;;;;5054462;28;20400;-54
2020/12/09 12:36:08;;;;;;;6.17;5.47;;;10.10;1.00;;;;;;5054286;28;20419;-54
2020/12/09 12:38:34;;;;;;;5.70;5.20;;;10.10;1.00;;;;;;5054232;28;20411;-55
2020/12/09 12:41:00;;;;;;;7.70;5.47;;;10.10;1.00;;;;;;5070126;28;20438;-54
2020/12/09 12:43:26;;;;;;;9.30;5.60;;;10.00;1.00;;;;;;5054180;28;20180;-56
2020/12/09 12:45:51;;;;;;;7.57;5.87;;;10.00;1.00;;;;;;5053934;28;20471;-55
2020/12/09 12:48:17;;;;;;;6.17;5.57;;;10.00;1.00;;;;;;5054381;28;20179;-56
2020/12/09 12:50:43;;;;;;;6.23;5.10;;;10.00;1.00;;;;;;5054381;28;20204;-55
2020/12/09 12:53:09;;;;;;;5.53;4.93;;;10.00;1.00;;;;;;5052906;28;20259;-54
2020/12/09 12:55:36;;;;;;;9.23;6.70;;;9.90;1.00;;;;;;5053181;28;20177;-55
2020/12/09 12:58:02;;;;;;;5.53;5.00;;;9.90;1.00;;;;;;5053812;28;20169;-55
2020/12/09 13:00:28;;;;;;;12.00;5.53;;;9.90;1.00;;;;;;5054203;28;20423;-55
2020/12/09 13:02:54;;;;;;;7.23;5.43;;;9.90;1.00;;;;;;5053873;28;20902;-53